sensor_id;sensor_type;location;lat;lon;timestamp;P1;durP1;ratioP1;P2;durP2;ratioP2
46407;SDS011;32110;45.724;21.276;2024-02-23T00:00:27;15.32;;;8.02;;
46407;SDS011;32110;45.724;21.276;2024-02-23T00:02:52;13.48;;;7.90;;
46407;SDS011;32110;45.724;21.276;2024-02-23T00:05:21;15.25;;;8.15;;
46407;SDS011;32110;45.724;21.276;2024-02-23T00:07:47;17.83;;;9.55;;
46407;SDS011;32110;45.724;21.276;2024-02-23T00:10:12;21.10;;;10.82;;
46407;SDS011;32110;45.724;21.276;2024-02-23T00:12:38;24.85;;;12.02;;
46407;SDS011;32110;45.724;21.276;2024-02-23T00:15:03;27.83;;;13.98;;
46407;SDS011;32110;45.724;21.276;2024-02-23T00:17:29;33.50;;;16.15;;
46407;SDS011;32110;45.724;21.276;2024-02-23T00:19:55;42.70;;;17.27;;
46407;SDS011;32110;45.724;21.276;2024-02-23T00:22:20;32.08;;;15.30;;
46407;SDS011;32110;45.724;21.276;2024-02-23T00:24:46;30.38;;;14.20;;
46407;SDS011;32110;45.724;21.276;2024-02-23T00:27:11;24.55;;;12.55;;
46407;SDS011;32110;45.724;21.276;2024-02-23T00:29:37;19.85;;;10.45;;
46407;SDS011;32110;45.724;21.276;2024-02-23T00:32:03;16.33;;;8.63;;
46407;SDS011;32110;45.724;21.276;2024-02-23T00:34:28;19.77;;;8.90;;
46407;SDS011;32110;45.724;21.276;2024-02-23T00:36:56;14.63;;;7.65;;
46407;SDS011;32110;45.724;21.276;2024-02-23T00:39:22;17.25;;;7.95;;
46407;SDS011;32110;45.724;21.276;2024-02-23T00:41:48;13.52;;;7.75;;
46407;SDS011;32110;45.724;21.276;2024-02-23T00:44:13;12.52;;;6.85;;
46407;SDS011;32110;45.724;21.276;2024-02-23T00:46:39;12.43;;;6.60;;
46407;SDS011;32110;45.724;21.276;2024-02-23T00:49:05;11.57;;;6.07;;
46407;SDS011;32110;45.724;21.276;2024-02-23T00:51:31;10.05;;;5.78;;
46407;SDS011;32110;45.724;21.276;2024-02-23T00:53:56;10.45;;;5.68;;
46407;SDS011;32110;45.724;21.276;2024-02-23T00:56:22;9.40;;;5.70;;
46407;SDS011;32110;45.724;21.276;2024-02-23T00:58:48;9.88;;;5.60;;
46407;SDS011;32110;45.724;21.276;2024-02-23T01:01:13;8.20;;;5.65;;
46407;SDS011;32110;45.724;21.276;2024-02-23T01:03:39;8.63;;;4.85;;
46407;SDS011;32110;45.724;21.276;2024-02-23T01:06:04;9.77;;;5.75;;
46407;SDS011;32110;45.724;21.276;2024-02-23T01:08:30;9.80;;;5.10;;
46407;SDS011;32110;45.724;21.276;2024-02-23T01:10:56;13.95;;;6.13;;
46407;SDS011;32110;45.724;21.276;2024-02-23T01:13:21;12.07;;;5.78;;
46407;SDS011;32110;45.724;21.276;2024-02-23T01:15:47;10.25;;;5.55;;
46407;SDS011;32110;45.724;21.276;2024-02-23T01:18:12;8.93;;;4.78;;
46407;SDS011;32110;45.724;21.276;2024-02-23T01:20:38;10.02;;;5.22;;
46407;SDS011;32110;45.724;21.276;2024-02-23T01:23:03;7.65;;;5.20;;
46407;SDS011;32110;45.724;21.276;2024-02-23T01:25:29;11.80;;;5.63;;
46407;SDS011;32110;45.724;21.276;2024-02-23T01:27:54;12.10;;;5.75;;
46407;SDS011;32110;45.724;21.276;2024-02-23T01:30:19;10.73;;;5.05;;
46407;SDS011;32110;45.724;21.276;2024-02-23T01:32:45;11.02;;;5.45;;
46407;SDS011;32110;45.724;21.276;2024-02-23T01:35:11;8.25;;;4.85;;
46407;SDS011;32110;45.724;21.276;2024-02-23T01:37:36;8.55;;;5.47;;
46407;SDS011;32110;45.724;21.276;2024-02-23T01:40:02;8.23;;;5.25;;
46407;SDS011;32110;45.724;21.276;2024-02-23T01:42:28;9.25;;;5.22;;
46407;SDS011;32110;45.724;21.276;2024-02-23T01:44:54;9.27;;;5.35;;
46407;SDS011;32110;45.724;21.276;2024-02-23T01:47:22;9.85;;;5.65;;
46407;SDS011;32110;45.724;21.276;2024-02-23T01:49:48;8.57;;;5.20;;
46407;SDS011;32110;45.724;21.276;2024-02-23T01:52:15;11.90;;;5.10;;
46407;SDS011;32110;45.724;21.276;2024-02-23T01:54:41;8.25;;;5.18;;
46407;SDS011;32110;45.724;21.276;2024-02-23T01:57:07;8.88;;;5.38;;
46407;SDS011;32110;45.724;21.276;2024-02-23T01:59:34;12.32;;;6.57;;
46407;SDS011;32110;45.724;21.276;2024-02-23T02:02:02;9.65;;;5.22;;
46407;SDS011;32110;45.724;21.276;2024-02-23T02:04:29;7.93;;;4.70;;
46407;SDS011;32110;45.724;21.276;2024-02-23T02:06:54;9.32;;;5.72;;
46407;SDS011;32110;45.724;21.276;2024-02-23T02:09:20;10.02;;;5.18;;
46407;SDS011;32110;45.724;21.276;2024-02-23T02:11:49;10.63;;;5.50;;
46407;SDS011;32110;45.724;21.276;2024-02-23T02:14:15;7.88;;;4.70;;
46407;SDS011;32110;45.724;21.276;2024-02-23T02:16:41;9.45;;;5.30;;
46407;SDS011;32110;45.724;21.276;2024-02-23T02:19:07;9.60;;;5.13;;
46407;SDS011;32110;45.724;21.276;2024-02-23T02:21:33;9.85;;;5.82;;
46407;SDS011;32110;45.724;21.276;2024-02-23T02:23:58;9.45;;;5.47;;
46407;SDS011;32110;45.724;21.276;2024-02-23T02:26:24;11.45;;;5.72;;
46407;SDS011;32110;45.724;21.276;2024-02-23T02:28:49;12.60;;;5.97;;
46407;SDS011;32110;45.724;21.276;2024-02-23T02:31:15;8.60;;;5.07;;
46407;SDS011;32110;45.724;21.276;2024-02-23T02:33:40;9.15;;;5.53;;
46407;SDS011;32110;45.724;21.276;2024-02-23T02:36:06;8.60;;;6.00;;
46407;SDS011;32110;45.724;21.276;2024-02-23T02:38:32;9.90;;;5.60;;
46407;SDS011;32110;45.724;21.276;2024-02-23T02:41:00;12.02;;;5.93;;
46407;SDS011;32110;45.724;21.276;2024-02-23T02:43:26;10.18;;;5.38;;
46407;SDS011;32110;45.724;21.276;2024-02-23T02:45:52;10.50;;;5.55;;
46407;SDS011;32110;45.724;21.276;2024-02-23T02:48:18;11.25;;;5.85;;
46407;SDS011;32110;45.724;21.276;2024-02-23T02:50:43;10.00;;;5.60;;
46407;SDS011;32110;45.724;21.276;2024-02-23T02:53:09;10.25;;;6.03;;
46407;SDS011;32110;45.724;21.276;2024-02-23T02:55:35;8.55;;;5.68;;
46407;SDS011;32110;45.724;21.276;2024-02-23T02:58:01;8.80;;;5.53;;
46407;SDS011;32110;45.724;21.276;2024-02-23T03:00:27;10.10;;;5.88;;
46407;SDS011;32110;45.724;21.276;2024-02-23T03:02:53;10.57;;;5.90;;
46407;SDS011;32110;45.724;21.276;2024-02-23T03:05:18;9.38;;;6.00;;
46407;SDS011;32110;45.724;21.276;2024-02-23T03:07:44;11.57;;;6.00;;
46407;SDS011;32110;45.724;21.276;2024-02-23T03:10:09;8.85;;;5.28;;
46407;SDS011;32110;45.724;21.276;2024-02-23T03:12:35;9.27;;;5.82;;
46407;SDS011;32110;45.724;21.276;2024-02-23T03:15:00;12.65;;;5.93;;
46407;SDS011;32110;45.724;21.276;2024-02-23T03:17:28;10.32;;;5.32;;
46407;SDS011;32110;45.724;21.276;2024-02-23T03:19:54;8.95;;;5.38;;
46407;SDS011;32110;45.724;21.276;2024-02-23T03:22:19;9.40;;;5.03;;
46407;SDS011;32110;45.724;21.276;2024-02-23T03:24:44;10.02;;;5.43;;
46407;SDS011;32110;45.724;21.276;2024-02-23T03:27:10;8.05;;;5.00;;
46407;SDS011;32110;45.724;21.276;2024-02-23T03:29:35;10.48;;;5.53;;
46407;SDS011;32110;45.724;21.276;2024-02-23T03:32:02;8.57;;;5.00;;
46407;SDS011;32110;45.724;21.276;2024-02-23T03:34:28;7.53;;;4.90;;
46407;SDS011;32110;45.724;21.276;2024-02-23T03:36:53;9.73;;;5.93;;
46407;SDS011;32110;45.724;21.276;2024-02-23T03:39:19;12.20;;;6.03;;
46407;SDS011;32110;45.724;21.276;2024-02-23T03:41:44;10.35;;;5.45;;
46407;SDS011;32110;45.724;21.276;2024-02-23T03:44:10;10.57;;;5.45;;
46407;SDS011;32110;45.724;21.276;2024-02-23T03:46:35;10.90;;;5.20;;
46407;SDS011;32110;45.724;21.276;2024-02-23T03:49:01;12.07;;;5.82;;
46407;SDS011;32110;45.724;21.276;2024-02-23T03:51:26;10.05;;;5.47;;
46407;SDS011;32110;45.724;21.276;2024-02-23T03:53:52;11.20;;;5.80;;
46407;SDS011;32110;45.724;21.276;2024-02-23T03:56:17;9.57;;;5.32;;
46407;SDS011;32110;45.724;21.276;2024-02-23T03:58:43;10.82;;;5.95;;
46407;SDS011;32110;45.724;21.276;2024-02-23T04:01:08;9.77;;;5.40;;
46407;SDS011;32110;45.724;21.276;2024-02-23T04:03:34;11.77;;;5.53;;
46407;SDS011;32110;45.724;21.276;2024-02-23T04:06:00;9.85;;;5.15;;
46407;SDS011;32110;45.724;21.276;2024-02-23T04:08:25;10.93;;;5.53;;
46407;SDS011;32110;45.724;21.276;2024-02-23T04:10:51;10.73;;;5.82;;
46407;SDS011;32110;45.724;21.276;2024-02-23T04:13:16;10.02;;;5.53;;
46407;SDS011;32110;45.724;21.276;2024-02-23T04:15:43;9.05;;;5.20;;
46407;SDS011;32110;45.724;21.276;2024-02-23T04:18:09;8.48;;;5.20;;
46407;SDS011;32110;45.724;21.276;2024-02-23T04:20:34;11.75;;;5.78;;
46407;SDS011;32110;45.724;21.276;2024-02-23T04:23:00;8.50;;;5.40;;
46407;SDS011;32110;45.724;21.276;2024-02-23T04:25:25;9.18;;;5.78;;
46407;SDS011;32110;45.724;21.276;2024-02-23T04:27:51;8.77;;;5.38;;
46407;SDS011;32110;45.724;21.276;2024-02-23T04:30:16;10.15;;;5.75;;
46407;SDS011;32110;45.724;21.276;2024-02-23T04:32:42;10.30;;;5.38;;
46407;SDS011;32110;45.724;21.276;2024-02-23T04:35:09;10.25;;;5.55;;
46407;SDS011;32110;45.724;21.276;2024-02-23T04:37:34;9.30;;;5.30;;
46407;SDS011;32110;45.724;21.276;2024-02-23T04:40:00;10.20;;;5.70;;
46407;SDS011;32110;45.724;21.276;2024-02-23T04:42:26;7.72;;;4.88;;
46407;SDS011;32110;45.724;21.276;2024-02-23T04:44:52;9.18;;;5.35;;
46407;SDS011;32110;45.724;21.276;2024-02-23T04:47:20;11.32;;;5.85;;
46407;SDS011;32110;45.724;21.276;2024-02-23T04:49:45;8.32;;;4.93;;
46407;SDS011;32110;45.724;21.276;2024-02-23T04:52:11;9.35;;;5.50;;
46407;SDS011;32110;45.724;21.276;2024-02-23T04:54:36;8.90;;;5.18;;
46407;SDS011;32110;45.724;21.276;2024-02-23T04:57:02;10.05;;;5.10;;
46407;SDS011;32110;45.724;21.276;2024-02-23T04:59:27;8.80;;;5.13;;
46407;SDS011;32110;45.724;21.276;2024-02-23T05:01:55;8.40;;;5.22;;
46407;SDS011;32110;45.724;21.276;2024-02-23T05:04:20;9.25;;;5.05;;
46407;SDS011;32110;45.724;21.276;2024-02-23T05:06:46;8.57;;;5.10;;
46407;SDS011;32110;45.724;21.276;2024-02-23T05:09:11;8.30;;;4.65;;
46407;SDS011;32110;45.724;21.276;2024-02-23T05:11:37;8.27;;;4.47;;
46407;SDS011;32110;45.724;21.276;2024-02-23T05:14:02;9.27;;;5.18;;
46407;SDS011;32110;45.724;21.276;2024-02-23T05:16:28;9.18;;;5.40;;
46407;SDS011;32110;45.724;21.276;2024-02-23T05:18:53;7.63;;;4.70;;
46407;SDS011;32110;45.724;21.276;2024-02-23T05:21:19;8.43;;;5.13;;
46407;SDS011;32110;45.724;21.276;2024-02-23T05:23:45;8.30;;;5.88;;
46407;SDS011;32110;45.724;21.276;2024-02-23T05:26:11;25.45;;;10.82;;
46407;SDS011;32110;45.724;21.276;2024-02-23T05:28:37;26.77;;;10.73;;
46407;SDS011;32110;45.724;21.276;2024-02-23T05:31:03;17.88;;;8.77;;
46407;SDS011;32110;45.724;21.276;2024-02-23T05:33:29;9.02;;;5.22;;
46407;SDS011;32110;45.724;21.276;2024-02-23T05:35:55;8.73;;;5.50;;
46407;SDS011;32110;45.724;21.276;2024-02-23T05:38:20;11.88;;;4.88;;
46407;SDS011;32110;45.724;21.276;2024-02-23T05:40:46;8.18;;;5.47;;
46407;SDS011;32110;45.724;21.276;2024-02-23T05:43:13;8.70;;;5.30;;
46407;SDS011;32110;45.724;21.276;2024-02-23T05:45:39;10.45;;;5.57;;
46407;SDS011;32110;45.724;21.276;2024-02-23T05:48:04;9.45;;;5.55;;
46407;SDS011;32110;45.724;21.276;2024-02-23T05:50:30;9.93;;;5.28;;
46407;SDS011;32110;45.724;21.276;2024-02-23T05:52:56;7.65;;;5.30;;
46407;SDS011;32110;45.724;21.276;2024-02-23T05:55:21;9.80;;;5.07;;
46407;SDS011;32110;45.724;21.276;2024-02-23T05:57:47;9.02;;;5.22;;
46407;SDS011;32110;45.724;21.276;2024-02-23T06:00:12;8.13;;;5.35;;
46407;SDS011;32110;45.724;21.276;2024-02-23T06:02:39;12.82;;;5.75;;
46407;SDS011;32110;45.724;21.276;2024-02-23T06:05:05;12.15;;;6.38;;
46407;SDS011;32110;45.724;21.276;2024-02-23T06:07:32;10.57;;;5.55;;
46407;SDS011;32110;45.724;21.276;2024-02-23T06:09:59;11.20;;;5.95;;
46407;SDS011;32110;45.724;21.276;2024-02-23T06:12:25;9.75;;;5.65;;
46407;SDS011;32110;45.724;21.276;2024-02-23T06:14:52;10.15;;;5.90;;
46407;SDS011;32110;45.724;21.276;2024-02-23T06:17:17;11.60;;;5.80;;
46407;SDS011;32110;45.724;21.276;2024-02-23T06:19:43;10.02;;;5.70;;
46407;SDS011;32110;45.724;21.276;2024-02-23T06:22:09;10.82;;;6.25;;
46407;SDS011;32110;45.724;21.276;2024-02-23T06:24:36;10.43;;;5.72;;
46407;SDS011;32110;45.724;21.276;2024-02-23T06:27:01;8.85;;;5.65;;
46407;SDS011;32110;45.724;21.276;2024-02-23T06:29:28;8.98;;;5.30;;
46407;SDS011;32110;45.724;21.276;2024-02-23T06:31:54;11.40;;;5.82;;
46407;SDS011;32110;45.724;21.276;2024-02-23T06:34:20;10.57;;;5.70;;
46407;SDS011;32110;45.724;21.276;2024-02-23T06:36:45;10.60;;;5.18;;
46407;SDS011;32110;45.724;21.276;2024-02-23T06:39:11;9.43;;;5.38;;
46407;SDS011;32110;45.724;21.276;2024-02-23T06:41:37;11.85;;;5.80;;
46407;SDS011;32110;45.724;21.276;2024-02-23T06:44:04;8.73;;;5.30;;
46407;SDS011;32110;45.724;21.276;2024-02-23T06:46:29;10.38;;;5.18;;
46407;SDS011;32110;45.724;21.276;2024-02-23T06:48:55;8.63;;;5.20;;
46407;SDS011;32110;45.724;21.276;2024-02-23T06:51:21;9.10;;;5.82;;
46407;SDS011;32110;45.724;21.276;2024-02-23T06:53:46;12.70;;;5.60;;
46407;SDS011;32110;45.724;21.276;2024-02-23T06:56:12;8.18;;;5.40;;
46407;SDS011;32110;45.724;21.276;2024-02-23T06:58:37;10.35;;;5.85;;
46407;SDS011;32110;45.724;21.276;2024-02-23T07:01:04;8.90;;;5.32;;
46407;SDS011;32110;45.724;21.276;2024-02-23T07:03:30;9.88;;;5.65;;
46407;SDS011;32110;45.724;21.276;2024-02-23T07:05:57;13.40;;;5.20;;
46407;SDS011;32110;45.724;21.276;2024-02-23T07:08:22;9.45;;;5.78;;
46407;SDS011;32110;45.724;21.276;2024-02-23T07:10:48;10.18;;;5.70;;
46407;SDS011;32110;45.724;21.276;2024-02-23T07:13:13;9.15;;;5.53;;
46407;SDS011;32110;45.724;21.276;2024-02-23T07:15:39;15.40;;;6.72;;
46407;SDS011;32110;45.724;21.276;2024-02-23T07:18:04;10.02;;;5.50;;
46407;SDS011;32110;45.724;21.276;2024-02-23T07:20:30;15.20;;;5.88;;
46407;SDS011;32110;45.724;21.276;2024-02-23T07:22:56;10.75;;;5.63;;
46407;SDS011;32110;45.724;21.276;2024-02-23T07:25:21;10.73;;;5.95;;
46407;SDS011;32110;45.724;21.276;2024-02-23T07:27:48;10.25;;;6.00;;
46407;SDS011;32110;45.724;21.276;2024-02-23T07:30:14;9.38;;;5.93;;
46407;SDS011;32110;45.724;21.276;2024-02-23T07:32:41;10.98;;;5.60;;
46407;SDS011;32110;45.724;21.276;2024-02-23T07:35:07;10.55;;;5.60;;
46407;SDS011;32110;45.724;21.276;2024-02-23T07:37:33;9.90;;;6.47;;
46407;SDS011;32110;45.724;21.276;2024-02-23T07:39:58;9.88;;;5.15;;
46407;SDS011;32110;45.724;21.276;2024-02-23T07:42:24;9.60;;;5.45;;
46407;SDS011;32110;45.724;21.276;2024-02-23T07:44:49;8.77;;;5.40;;
46407;SDS011;32110;45.724;21.276;2024-02-23T07:47:15;14.73;;;5.70;;
46407;SDS011;32110;45.724;21.276;2024-02-23T07:49:40;8.40;;;5.60;;
46407;SDS011;32110;45.724;21.276;2024-02-23T07:52:06;8.98;;;5.43;;
46407;SDS011;32110;45.724;21.276;2024-02-23T07:54:32;8.15;;;4.90;;
46407;SDS011;32110;45.724;21.276;2024-02-23T07:56:58;12.25;;;5.13;;
46407;SDS011;32110;45.724;21.276;2024-02-23T07:59:24;11.18;;;5.80;;
46407;SDS011;32110;45.724;21.276;2024-02-23T08:01:49;9.25;;;5.35;;
46407;SDS011;32110;45.724;21.276;2024-02-23T08:04:15;9.30;;;5.40;;
46407;SDS011;32110;45.724;21.276;2024-02-23T08:06:41;7.43;;;4.93;;
46407;SDS011;32110;45.724;21.276;2024-02-23T08:09:07;9.63;;;5.18;;
46407;SDS011;32110;45.724;21.276;2024-02-23T08:11:33;9.07;;;5.47;;
46407;SDS011;32110;45.724;21.276;2024-02-23T08:13:59;8.80;;;5.50;;
46407;SDS011;32110;45.724;21.276;2024-02-23T08:16:24;10.95;;;5.68;;
46407;SDS011;32110;45.724;21.276;2024-02-23T08:18:50;9.93;;;5.75;;
46407;SDS011;32110;45.724;21.276;2024-02-23T08:21:15;9.68;;;4.97;;
46407;SDS011;32110;45.724;21.276;2024-02-23T08:23:41;8.15;;;5.20;;
46407;SDS011;32110;45.724;21.276;2024-02-23T08:26:06;9.13;;;5.57;;
46407;SDS011;32110;45.724;21.276;2024-02-23T08:28:32;8.75;;;5.70;;
46407;SDS011;32110;45.724;21.276;2024-02-23T08:30:57;9.45;;;5.35;;
46407;SDS011;32110;45.724;21.276;2024-02-23T08:33:23;9.82;;;5.35;;
46407;SDS011;32110;45.724;21.276;2024-02-23T08:35:48;9.23;;;5.40;;
46407;SDS011;32110;45.724;21.276;2024-02-23T08:38:14;8.55;;;5.18;;
46407;SDS011;32110;45.724;21.276;2024-02-23T08:40:39;7.53;;;4.85;;
46407;SDS011;32110;45.724;21.276;2024-02-23T08:43:05;9.95;;;4.90;;
46407;SDS011;32110;45.724;21.276;2024-02-23T08:45:31;8.20;;;5.20;;
46407;SDS011;32110;45.724;21.276;2024-02-23T08:47:56;7.75;;;5.20;;
46407;SDS011;32110;45.724;21.276;2024-02-23T08:50:21;9.68;;;5.68;;
46407;SDS011;32110;45.724;21.276;2024-02-23T08:52:47;9.20;;;5.45;;
46407;SDS011;32110;45.724;21.276;2024-02-23T08:55:12;7.07;;;4.63;;
46407;SDS011;32110;45.724;21.276;2024-02-23T08:57:38;7.72;;;5.25;;
46407;SDS011;32110;45.724;21.276;2024-02-23T09:00:04;9.50;;;5.15;;
46407;SDS011;32110;45.724;21.276;2024-02-23T09:02:30;11.50;;;5.43;;
46407;SDS011;32110;45.724;21.276;2024-02-23T09:04:57;8.70;;;5.32;;
46407;SDS011;32110;45.724;21.276;2024-02-23T09:07:23;8.10;;;5.03;;
46407;SDS011;32110;45.724;21.276;2024-02-23T09:09:49;9.38;;;5.55;;
46407;SDS011;32110;45.724;21.276;2024-02-23T09:12:15;11.85;;;5.22;;
46407;SDS011;32110;45.724;21.276;2024-02-23T09:14:42;12.77;;;5.70;;
46407;SDS011;32110;45.724;21.276;2024-02-23T09:17:08;14.07;;;5.30;;
46407;SDS011;32110;45.724;21.276;2024-02-23T09:22:03;8.93;;;5.25;;
46407;SDS011;32110;45.724;21.276;2024-02-23T09:24:28;10.10;;;5.45;;
46407;SDS011;32110;45.724;21.276;2024-02-23T09:26:54;8.65;;;5.38;;
46407;SDS011;32110;45.724;21.276;2024-02-23T09:29:19;10.30;;;5.30;;
46407;SDS011;32110;45.724;21.276;2024-02-23T09:31:46;9.02;;;4.80;;
46407;SDS011;32110;45.724;21.276;2024-02-23T09:34:12;8.48;;;5.25;;
46407;SDS011;32110;45.724;21.276;2024-02-23T09:36:37;10.88;;;5.57;;
46407;SDS011;32110;45.724;21.276;2024-02-23T09:39:02;8.73;;;5.53;;
46407;SDS011;32110;45.724;21.276;2024-02-23T09:41:29;9.32;;;5.03;;
46407;SDS011;32110;45.724;21.276;2024-02-23T09:43:56;8.73;;;4.32;;
46407;SDS011;32110;45.724;21.276;2024-02-23T09:46:23;11.98;;;4.68;;
46407;SDS011;32110;45.724;21.276;2024-02-23T09:48:50;9.23;;;5.72;;
46407;SDS011;32110;45.724;21.276;2024-02-23T09:51:16;7.13;;;4.65;;
46407;SDS011;32110;45.724;21.276;2024-02-23T09:53:43;8.18;;;5.13;;
46407;SDS011;32110;45.724;21.276;2024-02-23T09:56:09;8.88;;;4.47;;
46407;SDS011;32110;45.724;21.276;2024-02-23T09:58:39;8.82;;;4.20;;
46407;SDS011;32110;45.724;21.276;2024-02-23T10:01:06;9.07;;;4.82;;
46407;SDS011;32110;45.724;21.276;2024-02-23T10:03:32;13.73;;;7.55;;
46407;SDS011;32110;45.724;21.276;2024-02-23T10:05:58;10.13;;;5.47;;
46407;SDS011;32110;45.724;21.276;2024-02-23T10:08:26;9.38;;;5.00;;
46407;SDS011;32110;45.724;21.276;2024-02-23T10:10:52;8.05;;;4.75;;
46407;SDS011;32110;45.724;21.276;2024-02-23T10:13:24;11.13;;;5.32;;
46407;SDS011;32110;45.724;21.276;2024-02-23T10:15:50;9.18;;;4.97;;
46407;SDS011;32110;45.724;21.276;2024-02-23T10:18:16;9.35;;;4.60;;
46407;SDS011;32110;45.724;21.276;2024-02-23T10:20:42;8.05;;;5.03;;
46407;SDS011;32110;45.724;21.276;2024-02-23T10:23:08;7.57;;;4.22;;
46407;SDS011;32110;45.724;21.276;2024-02-23T10:25:34;9.50;;;4.13;;
46407;SDS011;32110;45.724;21.276;2024-02-23T10:28:03;7.85;;;4.07;;
46407;SDS011;32110;45.724;21.276;2024-02-23T10:30:30;14.65;;;4.45;;
46407;SDS011;32110;45.724;21.276;2024-02-23T10:32:56;6.88;;;3.90;;
46407;SDS011;32110;45.724;21.276;2024-02-23T10:35:23;8.55;;;4.00;;
46407;SDS011;32110;45.724;21.276;2024-02-23T10:37:49;8.35;;;3.92;;
46407;SDS011;32110;45.724;21.276;2024-02-23T10:40:17;6.90;;;3.92;;
46407;SDS011;32110;45.724;21.276;2024-02-23T10:42:44;9.13;;;4.43;;
46407;SDS011;32110;45.724;21.276;2024-02-23T10:45:16;9.18;;;4.03;;
46407;SDS011;32110;45.724;21.276;2024-02-23T10:47:43;6.55;;;3.97;;
46407;SDS011;32110;45.724;21.276;2024-02-23T10:50:08;5.65;;;3.90;;
46407;SDS011;32110;45.724;21.276;2024-02-23T10:52:35;7.82;;;4.13;;
46407;SDS011;32110;45.724;21.276;2024-02-23T10:55:04;8.40;;;4.43;;
46407;SDS011;32110;45.724;21.276;2024-02-23T10:57:34;8.13;;;4.80;;
46407;SDS011;32110;45.724;21.276;2024-02-23T11:00:00;6.80;;;3.85;;
46407;SDS011;32110;45.724;21.276;2024-02-23T11:02:30;9.80;;;4.32;;
46407;SDS011;32110;45.724;21.276;2024-02-23T11:04:57;8.90;;;4.43;;
46407;SDS011;32110;45.724;21.276;2024-02-23T11:07:24;7.13;;;4.28;;
46407;SDS011;32110;45.724;21.276;2024-02-23T11:09:54;9.25;;;5.20;;
46407;SDS011;32110;45.724;21.276;2024-02-23T11:12:23;7.93;;;4.40;;
46407;SDS011;32110;45.724;21.276;2024-02-23T11:14:50;10.10;;;4.93;;
46407;SDS011;32110;45.724;21.276;2024-02-23T11:17:19;8.70;;;4.88;;
46407;SDS011;32110;45.724;21.276;2024-02-23T11:22:11;7.72;;;4.60;;
46407;SDS011;32110;45.724;21.276;2024-02-23T11:24:41;9.68;;;5.18;;
46407;SDS011;32110;45.724;21.276;2024-02-23T11:27:13;8.10;;;4.88;;
46407;SDS011;32110;45.724;21.276;2024-02-23T11:29:42;9.52;;;5.50;;
46407;SDS011;32110;45.724;21.276;2024-02-23T11:32:18;8.27;;;4.95;;
46407;SDS011;32110;45.724;21.276;2024-02-23T11:34:56;7.25;;;4.97;;
46407;SDS011;32110;45.724;21.276;2024-02-23T11:37:22;7.88;;;4.80;;
46407;SDS011;32110;45.724;21.276;2024-02-23T11:39:47;9.38;;;5.18;;
46407;SDS011;32110;45.724;21.276;2024-02-23T11:42:13;7.68;;;4.90;;
46407;SDS011;32110;45.724;21.276;2024-02-23T11:44:39;11.13;;;5.30;;
46407;SDS011;32110;45.724;21.276;2024-02-23T11:47:06;9.35;;;4.85;;
46407;SDS011;32110;45.724;21.276;2024-02-23T11:49:32;9.20;;;4.68;;
46407;SDS011;32110;45.724;21.276;2024-02-23T11:51:58;6.75;;;4.88;;
46407;SDS011;32110;45.724;21.276;2024-02-23T11:54:25;9.00;;;5.07;;
46407;SDS011;32110;45.724;21.276;2024-02-23T11:56:50;7.03;;;4.80;;
46407;SDS011;32110;45.724;21.276;2024-02-23T11:59:18;8.55;;;5.22;;
46407;SDS011;32110;45.724;21.276;2024-02-23T12:01:45;10.32;;;5.15;;
46407;SDS011;32110;45.724;21.276;2024-02-23T12:04:12;8.40;;;4.80;;
46407;SDS011;32110;45.724;21.276;2024-02-23T12:06:39;9.45;;;4.57;;
46407;SDS011;32110;45.724;21.276;2024-02-23T12:09:06;7.85;;;4.82;;
46407;SDS011;32110;45.724;21.276;2024-02-23T12:11:33;9.20;;;5.22;;
46407;SDS011;32110;45.724;21.276;2024-02-23T12:13:59;7.57;;;4.78;;
46407;SDS011;32110;45.724;21.276;2024-02-23T12:16:27;7.05;;;5.03;;
46407;SDS011;32110;45.724;21.276;2024-02-23T12:18:53;8.05;;;5.40;;
46407;SDS011;32110;45.724;21.276;2024-02-23T12:21:20;12.88;;;5.70;;
46407;SDS011;32110;45.724;21.276;2024-02-23T12:23:48;12.00;;;6.55;;
46407;SDS011;32110;45.724;21.276;2024-02-23T12:26:16;10.60;;;6.43;;
46407;SDS011;32110;45.724;21.276;2024-02-23T12:28:42;12.27;;;7.93;;
46407;SDS011;32110;45.724;21.276;2024-02-23T12:31:09;11.38;;;6.78;;
46407;SDS011;32110;45.724;21.276;2024-02-23T12:33:35;9.20;;;6.30;;
46407;SDS011;32110;45.724;21.276;2024-02-23T12:36:05;12.25;;;6.32;;
46407;SDS011;32110;45.724;21.276;2024-02-23T12:38:31;7.95;;;5.43;;
46407;SDS011;32110;45.724;21.276;2024-02-23T12:40:57;8.70;;;5.55;;
46407;SDS011;32110;45.724;21.276;2024-02-23T12:43:24;8.98;;;5.75;;
46407;SDS011;32110;45.724;21.276;2024-02-23T12:45:52;8.23;;;5.38;;
46407;SDS011;32110;45.724;21.276;2024-02-23T12:48:19;9.88;;;6.03;;
46407;SDS011;32110;45.724;21.276;2024-02-23T12:50:48;11.80;;;5.87;;
46407;SDS011;32110;45.724;21.276;2024-02-23T12:56:15;12.48;;;6.20;;
46407;SDS011;32110;45.724;21.276;2024-02-23T12:58:41;8.93;;;5.30;;
46407;SDS011;32110;45.724;21.276;2024-02-23T13:01:08;9.70;;;5.35;;
46407;SDS011;32110;45.724;21.276;2024-02-23T13:03:34;8.13;;;4.25;;
46407;SDS011;32110;45.724;21.276;2024-02-23T13:06:01;8.90;;;4.93;;
46407;SDS011;32110;45.724;21.276;2024-02-23T13:08:27;8.32;;;4.78;;
46407;SDS011;32110;45.724;21.276;2024-02-23T13:10:53;8.13;;;5.15;;
46407;SDS011;32110;45.724;21.276;2024-02-23T13:13:20;9.52;;;4.97;;
46407;SDS011;32110;45.724;21.276;2024-02-23T13:15:46;8.23;;;4.93;;
46407;SDS011;32110;45.724;21.276;2024-02-23T13:18:12;9.30;;;4.97;;
46407;SDS011;32110;45.724;21.276;2024-02-23T13:20:38;8.32;;;5.18;;
46407;SDS011;32110;45.724;21.276;2024-02-23T13:23:06;11.82;;;5.13;;
46407;SDS011;32110;45.724;21.276;2024-02-23T13:25:33;9.32;;;5.22;;
46407;SDS011;32110;45.724;21.276;2024-02-23T13:27:59;7.97;;;5.18;;
46407;SDS011;32110;45.724;21.276;2024-02-23T13:30:25;9.52;;;5.32;;
46407;SDS011;32110;45.724;21.276;2024-02-23T13:32:50;7.47;;;5.00;;
46407;SDS011;32110;45.724;21.276;2024-02-23T13:35:16;9.15;;;5.10;;
46407;SDS011;32110;45.724;21.276;2024-02-23T13:37:42;13.95;;;5.78;;
46407;SDS011;32110;45.724;21.276;2024-02-23T13:40:08;10.23;;;5.18;;
46407;SDS011;32110;45.724;21.276;2024-02-23T13:42:35;8.23;;;5.32;;
46407;SDS011;32110;45.724;21.276;2024-02-23T13:45:01;9.68;;;5.60;;
46407;SDS011;32110;45.724;21.276;2024-02-23T13:47:26;10.57;;;5.60;;
46407;SDS011;32110;45.724;21.276;2024-02-23T13:49:51;7.45;;;5.07;;
46407;SDS011;32110;45.724;21.276;2024-02-23T13:52:17;8.43;;;4.72;;
46407;SDS011;32110;45.724;21.276;2024-02-23T13:54:42;9.38;;;4.72;;
46407;SDS011;32110;45.724;21.276;2024-02-23T13:57:08;7.45;;;4.68;;
46407;SDS011;32110;45.724;21.276;2024-02-23T13:59:33;6.97;;;4.40;;
46407;SDS011;32110;45.724;21.276;2024-02-23T14:01:59;8.50;;;4.70;;
46407;SDS011;32110;45.724;21.276;2024-02-23T14:04:25;7.60;;;4.13;;
46407;SDS011;32110;45.724;21.276;2024-02-23T14:06:51;8.57;;;4.57;;
46407;SDS011;32110;45.724;21.276;2024-02-23T14:09:16;7.25;;;4.75;;
46407;SDS011;32110;45.724;21.276;2024-02-23T14:11:42;11.73;;;6.05;;
46407;SDS011;32110;45.724;21.276;2024-02-23T14:14:08;13.85;;;7.68;;
46407;SDS011;32110;45.724;21.276;2024-02-23T14:16:33;15.15;;;8.07;;
46407;SDS011;32110;45.724;21.276;2024-02-23T14:19:00;13.63;;;7.80;;
46407;SDS011;32110;45.724;21.276;2024-02-23T14:21:25;15.60;;;7.63;;
46407;SDS011;32110;45.724;21.276;2024-02-23T14:23:51;9.60;;;5.35;;
46407;SDS011;32110;45.724;21.276;2024-02-23T14:26:17;9.40;;;5.50;;
46407;SDS011;32110;45.724;21.276;2024-02-23T14:28:42;10.30;;;5.60;;